Informes de METARS cercanos

 

LEAL - Alicante/El Alte, Spain
Distance from station: SSE 60km
Actualización: 31/07/2021 17:00
Few Clouds
Few Clouds
 Viento del ESE
Viento: ESE 17 km/h
Temperatura: 30°C
Heat Index: 33°C
Rocío: 22°C
Humedad: 62%
Barómetro: 1008 hPa
Clouds: Few Clouds
Visibility: 10 km
Cloud details: Few Clouds 640 m
2021/07/31 15:00 LEAL 311500Z 12009KT 080V150 9999 FEW021 30/22 Q1008 NOSIG
LEVC - Valencia (civ/Mi, Spain
Distance from station: NNE 84km
Actualización: 31/07/2021 17:00
Few Clouds
Few Clouds
 Viento del SE
Viento: SE 22 km/h
Temperatura: 31°C
Heat Index: 33°C
Rocío: 20°C
Humedad: 52%
Barómetro: 1006 hPa
Clouds: Few Clouds
Visibility: 10 km
Cloud details: Few Clouds 762 m
2021/07/31 15:00 LEVC 311500Z 13012KT 9999 FEW025 31/20 Q1006 NOSIG
 
LEAB - Albacete (civ/Mi, Spain
Distance from station: O 95km
Actualización: 31/07/2021 17:00
Despejado
Despejado
 Viento del O
Viento: O 28 km/h
Temperatura: 30°C
Rocío: 6°C
Humedad: 22%
Barómetro: 1012 hPa
Resumen: Despejado
Visibility: greater than 10 km
2021/07/31 15:00 LEAB 311500Z 27015KT 240V300 CAVOK 30/06 Q1012 NOSIG
LERI - Alcantarilla(Sp-, Spain
Distance from station: SSO 100km
Actualización: 31/07/2021 17:00
Few Clouds
Few Clouds
 Viento del SSE
Viento: SSE 24 km/h
Temperatura: 36°C
Rocío: 11°C
Humedad: 22%
Barómetro: 1006 hPa
Clouds: Few Clouds
Visibility: 10 km
Cloud details: Few Clouds 1829 m
2021/07/31 15:00 LERI 311500Z 15013KT 130V190 9999 FEW060 36/11 Q1006 NOSIG
 
LELC - San Javier(Mil/C, Spain
Distance from station: S 113km
Actualización: 31/07/2021 17:00
Few Clouds
Few Clouds
 Viento del SSE
Viento: SSE 13 km/h
Temperatura: 34°C
Rocío: 16°C
Humedad: 34%
Barómetro: 1007 hPa
Clouds: Few Clouds
Visibility: 10 km
Cloud details: Few Clouds 1524 m
2021/07/31 15:00 LELC 311500Z 15007KT 100V200 9999 FEW050 34/16 Q1007 NOSIG
LEIB - Ibiza/Es Codola, Spain
Distance from station: E 186km
Actualización: 31/07/2021 17:00
Few Clouds
Few Clouds
 Viento del SO
Viento: SO 17 km/h
Temperatura: 29°C
Heat Index: 32°C
Rocío: 23°C
Humedad: 70%
Barómetro: 1007 hPa
Clouds: Few Clouds
Visibility: 10 km
Cloud details: Few Clouds 457 m
2021/07/31 15:00 LEIB 311500Z 22009KT 170V240 9999 FEW015 29/23 Q1007 NOSIG
 
LEAM - Almeria Airport, Spain
Distance from station: SSO 256km
Actualización: 31/07/2021 17:00
Despejado
Despejado
 Viento del OSO
Viento: OSO 54 km/h
Temperatura: 28°C
Heat Index: 29°C
Rocío: 18°C
Humedad: 55%
Barómetro: 1007 hPa
Resumen: Despejado
Visibility: greater than 10 km
2021/07/31 15:00 LEAM 311500Z 24029KT CAVOK 28/18 Q1007
LEMD - Madrid/Barajas, Spain
Distance from station: NO 305km
Actualización: 31/07/2021 17:00
Parcialmente nuboso
Parcialmente nuboso
 Viento del N
Viento: N 20 km/h
Temperatura: 24°C
Rocío: 11°C
Humedad: 44%
Barómetro: 1013 hPa
Clouds: Parcialmente nuboso
Visibility: 10 km
Cloud details: Few Clouds 1829 m
Parcialmente nuboso 2316 m
2021/07/31 15:00 LEMD 311500Z 01011KT 340V070 9999 FEW060CB SCT076 24/11 Q1013 NOSIG
 
LEPA - Palma De Mallorc, Spain
Distance from station: ENE 313km
Actualización: 31/07/2021 17:00
Few Clouds
Few Clouds
 Viento del SO
Viento: SO 22 km/h
Temperatura: 31°C
Heat Index: 37°C
Rocío: 24°C
Humedad: 66%
Barómetro: 1008 hPa
Clouds: Few Clouds
Visibility: 10 km
Cloud details: Few Clouds 610 m
2021/07/31 15:00 LEPA 311500Z 22012KT 190V250 9999 FEW020 31/24 Q1008 NOSIG